Time;durP1;ratioP1;P1;durP2;ratioP2;P2;SDS_P1;SDS_P2;PMS_P1;PMS_P2;Temp;Humidity;BMP_temperature;BMP_pressure;BME280_temperature;BME280_humidity;BME280_pressure;Samples;Min_cycle;Max_cycle;Signal;HPM_P1;HPM_P2
2022/08/09 00:00:18;;;;;;;0.75;0.73;;;;;;;19.84;53.84;102087.22;5074323;28;20021;-54
2022/08/09 00:02:44;;;;;;;1.70;0.98;;;;;;;19.91;53.58;102100.84;5074412;28;20464;-51
2022/08/09 00:05:10;;;;;;;4.32;0.88;;;;;;;19.94;53.49;102118.63;5073043;28;20035;-54
2022/08/09 00:07:36;;;;;;;0.90;0.70;;;;;;;19.88;53.70;102115.72;5056718;28;20461;-56
2022/08/09 00:10:02;;;;;;;1.73;0.95;;;;;;;19.80;54.24;102113.25;5074861;28;20048;-51
2022/08/09 00:12:28;;;;;;;1.90;0.82;;;;;;;19.78;54.01;102112.63;5074511;28;20037;-54
2022/08/09 00:14:54;;;;;;;0.77;0.65;;;;;;;19.78;54.15;102119.94;5074248;28;20111;-56
2022/08/09 00:17:20;;;;;;;4.53;0.90;;;;;;;19.78;54.28;102115.34;5076215;28;20050;-55
2022/08/09 00:19:47;;;;;;;2.17;1.30;;;;;;;19.71;55.52;102128.94;5078311;28;20040;-55
2022/08/09 00:22:13;;;;;;;2.33;1.30;;;;;;;19.68;55.71;102137.53;5060250;28;20032;-52
2022/08/09 00:24:39;;;;;;;5.35;0.75;;;;;;;19.69;54.88;102131.06;5077119;28;20373;-57
2022/08/09 00:27:04;;;;;;;4.60;1.38;;;;;;;19.69;53.95;102122.88;5042332;28;20485;-52
2022/08/09 00:29:30;;;;;;;2.80;1.00;;;;;;;19.83;54.06;102136.50;5056752;28;20346;-54
2022/08/09 00:31:56;;;;;;;2.95;1.02;;;;;;;19.84;53.94;102124.56;5073758;28;20033;-56
2022/08/09 00:34:22;;;;;;;5.85;1.50;;;;;;;19.78;55.25;102122.66;5074303;28;20024;-55
2022/08/09 00:36:48;;;;;;;3.95;1.23;;;;;;;19.70;55.27;102124.53;5074580;28;20035;-51
2022/08/09 00:39:14;;;;;;;1.20;1.10;;;;;;;19.53;55.53;102126.88;5056370;28;20032;-53
2022/08/09 00:41:39;;;;;;;2.92;1.08;;;;;;;19.48;55.43;102128.56;5039362;28;20033;-54
2022/08/09 00:44:05;;;;;;;2.53;0.98;;;;;;;19.49;55.05;102125.63;5074310;28;20064;-53
2022/08/09 00:46:31;;;;;;;2.47;1.33;;;;;;;19.35;56.63;102121.25;5073364;28;20422;-50
2022/08/09 00:48:57;;;;;;;3.53;1.08;;;;;;;19.32;56.03;102129.88;5074735;28;20056;-52
2022/08/09 00:51:23;;;;;;;1.38;0.73;;;;;;;19.37;55.30;102126.50;5074107;28;20089;-54
2022/08/09 00:53:52;;;;;;;1.13;0.80;;;;;;;19.40;55.01;102129.63;5074442;28;20033;-52
2022/08/09 00:56:18;;;;;;;0.80;0.80;;;;;;;19.35;55.23;102129.44;5072761;28;20128;-54
2022/08/09 00:58:44;;;;;;;1.77;0.90;;;;;;;19.29;56.15;102122.09;5072577;28;20481;-55
2022/08/09 01:01:14;;;;;;;2.83;1.45;;;;;;;19.16;56.55;102120.22;5039596;28;20426;-53
2022/08/09 01:04:06;;;;;;;4.60;1.20;;;;;;;19.07;57.88;102122.31;5055452;28;20071;-54
2022/08/09 01:07:03;;;;;;;3.38;1.17;;;;;;;19.05;57.30;102131.75;5073049;28;20082;-55
2022/08/09 01:09:48;;;;;;;2.60;1.00;;;;;;;18.99;57.89;102132.59;5072733;28;20068;-53
2022/08/09 01:12:39;;;;;;;2.20;1.40;;;;;;;18.74;59.20;102133.19;5055764;28;20047;-55
2022/08/09 01:15:13;;;;;;;1.25;0.80;;;;;;;18.75;57.70;102127.50;5055674;28;20068;-54
2022/08/09 01:17:47;;;;;;;1.38;1.20;;;;;;;18.77;57.35;102135.47;5057964;28;20106;-51
2022/08/09 01:20:31;;;;;;;1.80;1.20;;;;;;;18.70;58.06;102126.44;5059580;28;20602;-56
2022/08/09 01:23:25;;;;;;;2.22;1.20;;;;;;;18.69;57.79;102131.06;5077382;28;20040;-54
2022/08/09 01:26:00;;;;;;;2.55;1.10;;;;;;;18.61;57.46;102130.41;5076659;28;20040;-54
2022/08/09 01:28:26;;;;;;;3.00;0.90;;;;;;;18.51;57.80;102128.91;5077437;28;20036;-53
2022/08/09 01:30:56;;;;;;;1.13;0.98;;;;;;;18.55;57.20;102135.66;5076187;28;20431;-51
2022/08/09 01:33:26;;;;;;;1.95;1.10;;;;;;;18.52;57.40;102129.78;5077984;28;20403;-51
2022/08/09 01:36:01;;;;;;;2.25;1.42;;;;;;;18.54;57.71;102133.13;5077242;28;20097;-55
2022/08/09 01:38:29;;;;;;;1.88;1.08;;;;;;;18.46;57.72;102127.88;5077177;28;20028;-55
2022/08/09 01:41:03;;;;;;;2.60;1.05;;;;;;;18.45;57.57;102126.22;5059168;28;20031;-53
2022/08/09 01:43:33;;;;;;;2.05;1.13;;;;;;;18.42;57.63;102130.16;5059174;28;20036;-54
2022/08/09 01:46:00;;;;;;;3.83;1.30;;;;;;;18.37;57.64;102128.06;5077184;28;20396;-56
2022/08/09 01:48:28;;;;;;;1.00;0.90;;;;;;;18.33;57.72;102140.41;5077312;28;20438;-55
2022/08/09 01:50:54;;;;;;;1.23;0.90;;;;;;;18.29;58.02;102133.66;5075630;28;20076;-56
2022/08/09 01:53:22;;;;;;;1.75;1.00;;;;;;;18.26;58.32;102131.38;5077248;28;20039;-55
2022/08/09 01:55:50;;;;;;;1.95;1.00;;;;;;;18.22;58.04;102124.69;5076874;28;20033;-54
2022/08/09 01:58:17;;;;;;;1.30;0.98;;;;;;;18.13;58.07;102118.56;5075972;28;20472;-54
2022/08/09 02:00:44;;;;;;;1.33;1.02;;;;;;;18.13;58.42;102126.72;5077304;28;20101;-55
2022/08/09 02:03:12;;;;;;;1.83;1.13;;;;;;;18.12;58.23;102132.38;5077113;28;20081;-53
2022/08/09 02:05:39;;;;;;;1.42;1.27;;;;;;;18.06;58.42;102125.84;5076115;28;20036;-55
2022/08/09 02:08:11;;;;;;;1.98;1.33;;;;;;;17.90;59.89;102124.31;5077925;28;20033;-55
2022/08/09 02:10:41;;;;;;;1.23;0.85;;;;;;;17.89;59.42;102121.81;5059705;28;20393;-54
2022/08/09 02:13:11;;;;;;;1.40;0.90;;;;;;;17.90;59.25;102129.75;5077730;28;20035;-57
2022/08/09 02:15:40;;;;;;;1.05;0.90;;;;;;;17.87;58.97;102130.16;5077254;28;20031;-55
2022/08/09 02:18:08;;;;;;;2.13;1.00;;;;;;;17.83;59.40;102134.31;5059406;28;20051;-53
2022/08/09 02:20:42;;;;;;;1.00;1.00;;;;;;;17.80;59.09;102129.25;5075636;28;20021;-55
2022/08/09 02:23:20;;;;;;;1.77;0.90;;;;;;;17.77;59.04;102125.06;5076764;28;20039;-56
2022/08/09 02:25:50;;;;;;;0.90;0.88;;;;;;;17.73;59.06;102131.09;5058363;28;20050;-59
2022/08/09 02:28:22;;;;;;;1.75;1.10;;;;;;;17.72;59.47;102129.44;5058884;28;20366;-56
2022/08/09 02:30:51;;;;;;;1.60;1.00;;;;;;;17.67;59.22;102126.47;5059248;28;20024;-54
2022/08/09 02:33:23;;;;;;;2.30;0.90;;;;;;;17.58;59.24;102115.75;5075453;28;20067;-56
2022/08/09 02:35:53;;;;;;;1.92;1.00;;;;;;;17.48;59.89;102109.84;5076489;28;20381;-56
2022/08/09 02:38:26;;;;;;;2.28;1.00;;;;;;;17.56;60.01;102125.16;5058491;28;20037;-55
2022/08/09 02:40:56;;;;;;;1.67;0.88;;;;;;;17.51;59.93;102131.16;5057718;28;20479;-54
2022/08/09 02:43:23;;;;;;;2.22;1.10;;;;;;;17.45;59.94;102129.25;5074739;28;20044;-55
2022/08/09 02:45:50;;;;;;;1.20;1.10;;;;;;;17.46;59.65;102133.66;5074854;28;20028;-56
2022/08/09 02:48:19;;;;;;;1.67;1.08;;;;;;;17.43;60.20;102128.59;5076182;28;20120;-54
2022/08/09 02:50:50;;;;;;;1.58;1.08;;;;;;;17.33;60.39;102120.81;5075265;28;20136;-55
2022/08/09 02:53:25;;;;;;;1.10;0.85;;;;;;;17.34;60.38;102130.63;5074728;28;20477;-51
2022/08/09 02:55:51;;;;;;;;;;;;;;;17.31;62.26;102132.91;5076030;28;20487;-54
2022/08/09 02:58:21;;;;;;;1.17;0.90;;;;;;;17.21;60.35;102128.66;5075814;28;19915;-55
2022/08/09 03:03:44;;;;;;;1.48;1.20;;;;;;;17.12;60.77;102118.13;5076001;28;20032;-55
2022/08/09 03:06:13;;;;;;;1.98;1.17;;;;;;;17.15;60.62;102131.31;5075507;28;20043;-57
2022/08/09 03:08:44;;;;;;;2.78;1.30;;;;;;;17.10;60.95;102134.63;5074062;28;20036;-55
2022/08/09 03:11:14;;;;;;;1.52;1.00;;;;;;;17.08;60.84;102133.16;5075054;28;20430;-57
2022/08/09 03:13:40;;;;;;;1.23;1.08;;;;;;;17.02;60.95;102118.47;5074153;28;20105;-55
2022/08/09 03:16:07;;;;;;;1.65;1.20;;;;;;;17.01;61.17;102128.50;5073711;28;20064;-56
2022/08/09 03:18:35;;;;;;;1.65;1.00;;;;;;;16.90;61.15;102110.03;5075764;28;20466;-55
2022/08/09 03:21:02;;;;;;;2.78;1.30;;;;;;;16.89;61.33;102121.91;5075341;28;20449;-55
2022/08/09 03:23:29;;;;;;;3.70;1.60;;;;;;;16.79;62.26;102113.22;5073655;28;20119;-56
2022/08/09 03:25:57;;;;;;;2.63;1.17;;;;;;;16.86;61.38;102124.19;5075096;28;20099;-57
2022/08/09 03:28:24;;;;;;;1.10;1.00;;;;;;;16.83;61.62;102122.69;5075324;28;20350;-55
2022/08/09 03:30:53;;;;;;;2.88;1.20;;;;;;;16.75;61.58;102115.50;5075124;28;20064;-56
2022/08/09 03:33:19;;;;;;;1.45;1.15;;;;;;;16.72;61.82;102113.16;5073602;28;20040;-56
2022/08/09 03:35:48;;;;;;;1.73;1.35;;;;;;;16.71;61.91;102118.78;5074767;28;20025;-56
2022/08/09 03:38:14;;;;;;;1.30;1.10;;;;;;;16.63;61.79;102108.91;5074598;28;20066;-56
2022/08/09 03:40:39;;;;;;;1.42;1.00;;;;;;;16.59;61.58;102111.16;5039235;28;20491;-57
2022/08/09 03:43:05;;;;;;;1.35;1.00;;;;;;;16.54;61.97;102113.59;5075146;28;20177;-55
2022/08/09 03:45:31;;;;;;;1.48;1.13;;;;;;;16.62;61.20;102121.63;5074525;28;20366;-54
2022/08/09 03:47:57;;;;;;;1.27;1.10;;;;;;;16.56;61.76;102116.13;5073429;28;20090;-52
2022/08/09 03:50:25;;;;;;;1.88;1.73;;;;;;;16.58;61.89;102119.50;5056277;28;20040;-52
2022/08/09 03:52:53;;;;;;;4.00;1.30;;;;;;;16.55;61.67;102114.47;5074250;28;20032;-55
2022/08/09 03:55:20;;;;;;;3.70;1.30;;;;;;;16.52;62.36;102122.97;5056502;28;20033;-56
2022/08/09 03:57:47;;;;;;;1.92;0.93;;;;;;;16.51;62.01;102124.00;5073773;28;20511;-57
2022/08/09 04:00:13;;;;;;;1.55;1.40;;;;;;;16.47;61.91;102128.97;5074404;28;20020;-54
2022/08/09 04:02:42;;;;;;;1.10;1.00;;;;;;;16.47;62.04;102117.28;5074374;28;20505;-55
2022/08/09 04:05:09;;;;;;;2.95;1.10;;;;;;;16.41;62.54;102114.31;5056282;28;20028;-56
2022/08/09 04:07:35;;;;;;;1.52;1.30;;;;;;;16.34;62.32;102109.84;5074519;28;20094;-55
2022/08/09 04:10:02;;;;;;;1.40;1.30;;;;;;;16.38;62.49;102124.69;5072905;28;20103;-56
2022/08/09 04:12:46;;;;;;;1.63;1.38;;;;;;;16.31;62.99;102118.38;5074368;28;20388;-55
2022/08/09 04:15:13;;;;;;;2.38;1.40;;;;;;;16.35;62.58;102125.09;5074187;28;20032;-56
2022/08/09 04:17:41;;;;;;;1.10;1.00;;;;;;;16.30;62.57;102132.94;5073312;28;20040;-56
2022/08/09 04:20:10;;;;;;;1.58;1.48;;;;;;;16.24;63.01;102129.13;5074303;28;20028;-54
2022/08/09 04:22:36;;;;;;;2.78;1.48;;;;;;;16.18;62.99;102140.75;5056402;28;20039;-51
2022/08/09 04:25:03;;;;;;;1.48;1.30;;;;;;;16.17;63.18;102136.34;5056096;28;20177;-54
2022/08/09 04:27:29;;;;;;;3.97;1.50;;;;;;;16.16;62.92;102130.09;5056179;28;20028;-56
2022/08/09 04:29:56;;;;;;;2.83;1.35;;;;;;;16.12;63.47;102136.94;5074022;28;20020;-52
2022/08/09 04:32:22;;;;;;;1.48;1.10;;;;;;;16.06;63.32;102118.69;5056058;28;20025;-51
2022/08/09 04:34:48;;;;;;;1.40;1.30;;;;;;;16.11;63.24;102134.41;5056307;28;20056;-53
2022/08/09 04:37:14;;;;;;;2.38;1.45;;;;;;;16.04;63.61;102128.88;5074083;28;20468;-55
2022/08/09 04:39:39;;;;;;;1.70;1.60;;;;;;;16.05;63.46;102136.81;5056083;28;20356;-55
2022/08/09 04:42:05;;;;;;;1.75;1.63;;;;;;;15.96;63.60;102126.28;5074046;28;20169;-56
2022/08/09 04:44:31;;;;;;;1.42;1.33;;;;;;;15.99;63.80;102139.44;5073982;28;20475;-55
2022/08/09 04:46:57;;;;;;;1.90;1.48;;;;;;;16.03;63.75;102144.31;5073907;28;20035;-56
2022/08/09 04:49:24;;;;;;;2.53;1.60;;;;;;;15.95;63.86;102130.84;5055767;28;20052;-53
2022/08/09 04:51:50;;;;;;;2.10;1.52;;;;;;;16.01;63.72;102151.78;5073215;28;20384;-54
2022/08/09 04:54:16;;;;;;;1.48;1.23;;;;;;;16.03;63.72;102149.72;5055984;28;20040;-56
2022/08/09 04:56:41;;;;;;;2.85;1.58;;;;;;;15.88;63.77;102129.94;5073718;28;20036;-53
2022/08/09 04:59:07;;;;;;;3.55;1.58;;;;;;;16.02;63.54;102155.34;5073914;28;20413;-55
2022/08/09 05:01:33;;;;;;;5.28;1.90;;;;;;;15.99;63.70;102137.59;5072864;28;20020;-52
2022/08/09 05:03:59;;;;;;;2.70;1.85;;;;;;;16.00;64.04;102152.81;5073763;28;20423;-56
2022/08/09 05:06:24;;;;;;;5.72;1.95;;;;;;;15.97;63.82;102149.63;5039203;28;20020;-56
2022/08/09 05:08:50;;;;;;;3.75;1.92;;;;;;;15.95;64.31;102162.53;5055639;28;20071;-53
2022/08/09 05:11:16;;;;;;;5.13;2.42;;;;;;;15.93;64.58;102161.88;5055117;28;20028;-56
2022/08/09 05:13:42;;;;;;;1.77;1.50;;;;;;;15.91;64.49;102166.66;5074189;28;20493;-55
2022/08/09 05:16:09;;;;;;;2.85;1.75;;;;;;;15.99;63.74;102169.25;5073541;28;20028;-55
2022/08/09 05:18:35;;;;;;;1.95;1.85;;;;;;;16.00;63.61;102155.50;5073189;28;20146;-50
2022/08/09 05:21:01;;;;;;;1.95;1.85;;;;;;;16.08;63.92;102176.25;5073568;28;20024;-54
2022/08/09 05:23:27;;;;;;;4.03;2.60;;;;;;;16.05;64.27;102177.47;5073348;28;20035;-55
2022/08/09 05:25:53;;;;;;;2.08;1.88;;;;;;;16.02;64.24;102164.28;5073418;28;20025;-55
2022/08/09 05:28:19;;;;;;;1.88;1.70;;;;;;;16.02;64.03;102164.28;5073070;28;20043;-55
2022/08/09 05:30:46;;;;;;;2.53;2.10;;;;;;;16.07;64.03;102177.28;5073342;28;20028;-53
2022/08/09 05:33:12;;;;;;;4.35;2.70;;;;;;;16.04;64.82;102186.63;5055063;28;20024;-55
2022/08/09 05:35:38;;;;;;;4.45;2.53;;;;;;;15.84;65.46;102153.00;5055022;28;20564;-51
2022/08/09 05:38:04;;;;;;;2.42;2.15;;;;;;;16.05;64.44;102184.78;5038866;28;20025;-51
2022/08/09 05:40:29;;;;;;;1.98;1.70;;;;;;;16.13;64.28;102186.53;5073316;28;20028;-54
2022/08/09 05:42:56;;;;;;;2.22;2.00;;;;;;;16.19;63.91;102200.16;5073615;28;20107;-53
2022/08/09 05:45:22;;;;;;;4.70;2.00;;;;;;;16.21;64.53;102194.56;5074013;28;20048;-50
2022/08/09 05:47:48;;;;;;;2.60;2.03;;;;;;;16.22;64.91;102201.69;5073688;28;20029;-54
2022/08/09 05:50:15;;;;;;;3.83;2.20;;;;;;;16.21;64.32;102183.72;5073285;28;20067;-55
2022/08/09 05:52:42;;;;;;;2.53;1.90;;;;;;;16.28;64.23;102195.50;5055613;28;20037;-53
2022/08/09 05:55:09;;;;;;;3.55;2.10;;;;;;;16.32;64.84;102204.94;5055473;28;20060;-54
2022/08/09 05:57:35;;;;;;;2.78;1.58;;;;;;;16.34;64.52;102202.84;5072928;28;20033;-55
2022/08/09 06:00:03;;;;;;;3.97;2.40;;;;;;;16.40;64.77;102209.41;5074260;28;20021;-54
2022/08/09 06:02:29;;;;;;;2.42;1.90;;;;;;;16.42;64.26;102201.94;5073687;28;20086;-54
2022/08/09 06:04:54;;;;;;;2.17;1.70;;;;;;;16.50;64.72;102209.13;5076023;28;20036;-53
2022/08/09 06:07:20;;;;;;;3.25;2.63;;;;;;;16.48;65.79;102203.06;5077068;28;20036;-54
2022/08/09 06:09:46;;;;;;;6.25;3.65;;;;;;;16.51;66.65;102208.06;5077180;28;20028;-55
2022/08/09 06:12:12;;;;;;;5.70;3.58;;;;;;;16.44;67.56;102200.72;5059417;28;20025;-53
2022/08/09 06:14:37;;;;;;;5.30;4.20;;;;;;;16.45;68.49;102215.09;5059261;28;20082;-53
2022/08/09 06:17:03;;;;;;;8.68;5.10;;;;;;;16.53;69.24;102222.28;5077256;28;20028;-54
2022/08/09 06:19:29;;;;;;;5.57;4.88;;;;;;;16.52;70.15;102228.75;5076564;28;20480;-51
2022/08/09 06:21:55;;;;;;;4.70;4.30;;;;;;;16.53;70.49;102225.00;5075682;28;20024;-53
2022/08/09 06:24:21;;;;;;;8.00;5.20;;;;;;;16.60;70.29;102226.78;5058723;28;20097;-56
2022/08/09 06:26:46;;;;;;;7.97;4.70;;;;;;;16.60;69.98;102220.50;5076632;28;20033;-54
2022/08/09 06:29:12;;;;;;;10.35;6.05;;;;;;;16.68;71.28;102222.25;5076312;28;20146;-53
2022/08/09 06:31:38;;;;;;;6.68;6.00;;;;;;;16.70;71.41;102231.06;5074515;28;20055;-55
2022/08/09 06:34:04;;;;;;;9.50;7.55;;;;;;;16.78;71.52;102239.91;5058404;28;20445;-51
2022/08/09 06:36:30;;;;;;;11.90;7.05;;;;;;;16.83;71.78;102242.09;5058303;28;20464;-54
2022/08/09 06:38:57;;;;;;;6.72;6.13;;;;;;;16.88;71.90;102257.78;5076485;28;20076;-53
2022/08/09 06:41:23;;;;;;;3.75;3.33;;;;;;;16.95;70.61;102245.97;5057738;28;20021;-54
2022/08/09 06:43:49;;;;;;;4.28;3.65;;;;;;;17.01;70.54;102244.34;5074584;28;20028;-54
2022/08/09 06:46:16;;;;;;;8.93;7.20;;;;;;;17.09;71.04;102246.13;5075961;28;20059;-55
2022/08/09 06:48:42;;;;;;;15.23;7.28;;;;;;;17.05;71.56;102234.81;5074734;28;20052;-55
2022/08/09 06:51:09;;;;;;;6.40;5.68;;;;;;;17.14;71.12;102243.66;5075564;28;20562;-56
2022/08/09 06:53:35;;;;;;;8.52;6.18;;;;;;;17.24;71.51;102249.63;5075974;28;20024;-55
2022/08/09 06:56:02;;;;;;;11.32;5.93;;;;;;;17.33;70.50;102255.78;5057678;28;20480;-55
2022/08/09 06:58:28;;;;;;;6.90;5.20;;;;;;;17.38;70.94;102243.28;5057782;28;20027;-54
2022/08/09 07:00:54;;;;;;;6.88;6.22;;;;;;;17.38;71.16;102232.44;5057574;28;20028;-55
2022/08/09 07:03:21;;;;;;;6.57;5.70;;;;;;;17.42;71.16;102239.13;5076121;28;20047;-55
2022/08/09 07:05:47;;;;;;;10.80;5.78;;;;;;;17.47;70.88;102235.00;5057338;28;20032;-55
2022/08/09 07:08:13;;;;;;;5.00;3.50;;;;;;;17.53;70.28;102231.47;5075829;28;20032;-54
2022/08/09 07:10:39;;;;;;;3.38;2.42;;;;;;;17.54;68.95;102212.28;5075810;28;20353;-55
2022/08/09 07:13:05;;;;;;;5.15;4.65;;;;;;;17.67;69.77;102236.00;5075851;28;20111;-55
2022/08/09 07:15:31;;;;;;;5.80;5.05;;;;;;;17.70;70.37;102232.88;5075261;28;20029;-55
2022/08/09 07:17:57;;;;;;;4.50;4.10;;;;;;;17.78;69.76;102235.44;5075806;28;20028;-54
2022/08/09 07:20:24;;;;;;;5.45;3.33;;;;;;;17.84;69.61;102231.09;5075589;28;20028;-54
2022/08/09 07:22:51;;;;;;;7.18;5.15;;;;;;;17.87;69.89;102235.34;5075223;28;20111;-56
2022/08/09 07:25:17;;;;;;;4.13;3.10;;;;;;;17.94;69.12;102237.06;5075052;28;20508;-55
2022/08/09 07:27:43;;;;;;;4.30;2.78;;;;;;;17.98;68.56;102235.63;5074876;28;20085;-55
2022/08/09 07:30:12;;;;;;;4.45;2.47;;;;;;;18.10;68.53;102243.22;5073573;28;20029;-55
2022/08/09 07:32:38;;;;;;;4.93;2.40;;;;;;;18.12;68.20;102232.97;5057048;28;20067;-55
2022/08/09 07:35:07;;;;;;;4.05;2.42;;;;;;;18.23;68.12;102246.00;5074932;28;20032;-53
2022/08/09 07:37:32;;;;;;;4.57;1.85;;;;;;;18.33;67.41;102245.63;5074543;28;20028;-51
2022/08/09 07:39:58;;;;;;;4.22;2.28;;;;;;;18.40;66.94;102238.34;5074818;28;20036;-54
2022/08/09 07:42:24;;;;;;;4.07;2.50;;;;;;;18.40;66.91;102221.19;5074397;28;20112;-54
2022/08/09 07:44:50;;;;;;;3.13;1.30;;;;;;;18.47;66.13;102227.50;5074627;28;20396;-51
2022/08/09 07:47:16;;;;;;;1.80;1.15;;;;;;;18.55;65.25;102230.03;5074458;28;20039;-53
2022/08/09 07:49:42;;;;;;;3.95;1.13;;;;;;;18.67;64.85;102235.75;5052976;28;20508;-56
2022/08/09 07:52:09;;;;;;;4.72;1.83;;;;;;;18.71;65.29;102235.13;5053800;28;20335;-53
2022/08/09 07:54:34;;;;;;;7.32;2.40;;;;;;;18.80;64.78;102243.13;5054788;28;20044;-54
2022/08/09 07:57:00;;;;;;;2.03;1.48;;;;;;;18.91;64.47;102242.53;5053568;28;20029;-54
2022/08/09 07:59:26;;;;;;;2.63;1.30;;;;;;;18.94;63.95;102247.56;5053350;28;20539;-54
2022/08/09 08:01:54;;;;;;;2.70;1.30;;;;;;;19.02;63.83;102246.53;5054442;28;20083;-55
2022/08/09 08:04:21;;;;;;;2.28;1.20;;;;;;;18.98;63.39;102229.78;5036570;28;20033;-55
2022/08/09 08:06:47;;;;;;;3.30;1.85;;;;;;;19.17;62.98;102251.78;5069914;28;20108;-52
2022/08/09 08:09:13;;;;;;;4.32;1.70;;;;;;;19.22;62.71;102250.13;5054699;28;20471;-53
2022/08/09 08:11:39;;;;;;;1.23;1.00;;;;;;;19.27;62.43;102258.53;5054545;28;20033;-55
2022/08/09 08:14:05;;;;;;;2.60;1.10;;;;;;;19.33;61.74;102260.44;5052993;28;20029;-55
2022/08/09 08:16:31;;;;;;;3.22;1.02;;;;;;;19.42;61.11;102257.50;5053031;28;20047;-53
2022/08/09 08:18:57;;;;;;;1.63;1.08;;;;;;;19.51;60.28;102254.34;5070180;28;20033;-50
2022/08/09 08:21:23;;;;;;;4.00;1.20;;;;;;;19.69;59.75;102267.34;5054358;28;20017;-54
2022/08/09 08:23:49;;;;;;;1.95;1.58;;;;;;;19.78;59.64;102264.44;5069342;28;20111;-54
2022/08/09 08:26:15;;;;;;;1.90;1.33;;;;;;;19.87;59.76;102255.84;5052590;28;20385;-54
2022/08/09 08:28:41;;;;;;;1.88;1.15;;;;;;;20.01;58.82;102253.91;5052095;28;20033;-51
2022/08/09 08:31:07;;;;;;;1.30;1.13;;;;;;;20.07;58.71;102246.78;5069303;28;20037;-54
2022/08/09 08:33:33;;;;;;;1.50;1.02;;;;;;;20.25;58.61;102271.50;5053708;28;20028;-53
2022/08/09 08:35:59;;;;;;;0.70;0.70;;;;;;;20.33;58.12;102261.41;5053613;28;20029;-55
2022/08/09 08:38:24;;;;;;;3.35;0.90;;;;;;;20.26;57.61;102234.13;5054210;28;20036;-51
2022/08/09 08:40:51;;;;;;;3.47;0.98;;;;;;;20.55;56.20;102265.50;5053542;28;20029;-51
2022/08/09 08:43:17;;;;;;;1.92;1.10;;;;;;;20.71;56.10;102252.44;5054027;28;20021;-52
2022/08/09 08:45:50;;;;;;;0.63;0.50;;;;;;;20.90;56.24;102262.44;5052724;28;20132;-54
2022/08/09 08:48:16;;;;;;;1.27;0.73;;;;;;;21.01;55.74;102260.91;5052543;28;20116;-53
2022/08/09 08:50:42;;;;;;;2.25;0.98;;;;;;;21.07;54.01;102236.28;5052137;28;20083;-53
2022/08/09 08:53:09;;;;;;;0.63;0.45;;;;;;;21.48;53.58;102250.50;5052494;28;20442;-54
2022/08/09 08:55:34;;;;;;;2.42;0.90;;;;;;;22.07;52.20;102242.81;5053873;28;20039;-51
2022/08/09 08:58:01;;;;;;;2.45;0.98;;;;;;;23.37;48.77;102229.72;5052569;28;20040;-53
2022/08/09 09:00:27;;;;;;;1.48;0.80;;;;;;;24.46;46.48;102212.69;5053993;28;20154;-51
2022/08/09 09:02:57;;;;;;;5.60;1.10;;;;;;;25.30;43.31;102225.81;5053907;28;20116;-54
2022/08/09 09:05:24;;;;;;;2.15;1.38;;;;;;;26.15;42.49;102230.38;5054306;28;20029;-51
2022/08/09 09:07:52;;;;;;;4.57;1.25;;;;;;;26.85;42.40;102206.69;5054164;28;20032;-55
2022/08/09 09:10:18;;;;;;;1.45;0.80;;;;;;;27.31;39.50;102217.31;5053841;28;20025;-51
2022/08/09 09:12:45;;;;;;;3.47;0.80;;;;;;;28.13;40.61;102226.97;5053613;28;20025;-54
2022/08/09 09:15:11;;;;;;;0.52;0.52;;;;;;;28.77;39.81;102227.78;5053498;28;20040;-54
2022/08/09 09:17:37;;;;;;;1.90;0.80;;;;;;;29.16;37.85;102202.38;5054076;28;20025;-53
2022/08/09 09:20:08;;;;;;;1.38;0.60;;;;;;;30.08;36.75;102215.22;5053404;28;20396;-53
2022/08/09 09:22:55;;;;;;;1.55;0.68;;;;;;;30.26;33.55;102220.13;5051971;28;20037;-54
2022/08/09 09:25:43;;;;;;;3.45;0.90;;;;;;;30.65;31.86;102224.94;5066748;28;20036;-56
2022/08/09 09:28:10;;;;;;;0.98;0.60;;;;;;;31.14;31.87;102222.38;5035846;28;20404;-56
2022/08/09 09:30:53;;;;;;;0.80;0.55;;;;;;;31.53;29.58;102224.28;5053043;28;20369;-55
2022/08/09 09:33:19;;;;;;;1.75;0.73;;;;;;;32.02;33.00;102225.94;5053416;28;20025;-55
2022/08/09 09:35:55;;;;;;;1.30;0.60;;;;;;;32.43;30.64;102217.13;5053413;28;20462;-54
2022/08/09 09:38:22;;;;;;;1.35;0.60;;;;;;;32.30;30.13;102221.47;5053457;28;20037;-55
2022/08/09 09:40:49;;;;;;;3.55;1.42;;;;;;;32.53;29.32;102221.69;5055593;28;20029;-55
2022/08/09 09:43:18;;;;;;;1.92;0.95;;;;;;;32.96;26.50;102211.31;5057115;28;20083;-56
2022/08/09 09:45:49;;;;;;;1.90;1.20;;;;;;;33.52;26.32;102205.91;5071698;28;20115;-56
2022/08/09 09:48:16;;;;;;;2.53;1.00;;;;;;;33.81;28.24;102204.81;5057020;28;20075;-54
2022/08/09 09:50:44;;;;;;;1.48;0.85;;;;;;;34.09;26.27;102188.91;5071903;28;20105;-56
2022/08/09 09:53:15;;;;;;;1.95;0.43;;;;;;;34.17;26.34;102196.53;5078365;28;20473;-56
2022/08/09 09:55:59;;;;;;;1.95;0.70;;;;;;;34.43;24.35;102191.22;5078098;28;20020;-56
2022/08/09 09:58:46;;;;;;;1.60;0.82;;;;;;;34.63;25.47;102189.09;5078185;28;20036;-55
2022/08/09 10:01:21;;;;;;;1.35;0.80;;;;;;;34.74;23.48;102176.56;5076757;28;20021;-56
2022/08/09 10:03:49;;;;;;;2.42;1.23;;;;;;;34.84;23.78;102181.88;5078024;28;20032;-53
2022/08/09 10:06:16;;;;;;;1.48;0.90;;;;;;;35.05;24.71;102189.75;5077501;28;20043;-56
2022/08/09 10:08:43;;;;;;;0.82;0.70;;;;;;;35.21;26.24;102181.81;5076684;28;20037;-53
2022/08/09 10:11:20;;;;;;;2.25;0.90;;;;;;;35.92;21.39;102179.00;5077938;28;20032;-56
2022/08/09 10:13:47;;;;;;;1.38;0.98;;;;;;;35.82;23.58;102174.53;5077556;28;20032;-56
2022/08/09 10:16:15;;;;;;;2.22;0.90;;;;;;;34.97;22.07;102170.97;5077740;28;20082;-54
2022/08/09 10:19:03;;;;;;;1.27;0.90;;;;;;;35.27;21.26;102173.00;5076577;28;20118;-56
2022/08/09 10:21:29;;;;;;;2.70;1.05;;;;;;;35.02;22.10;102170.84;5078413;28;20029;-55
2022/08/09 10:24:00;;;;;;;3.78;0.98;;;;;;;34.39;23.34;102175.44;5078737;28;20032;-55
2022/08/09 10:26:27;;;;;;;1.80;0.88;;;;;;;34.20;23.58;102173.63;5077318;28;20067;-56
2022/08/09 10:28:53;;;;;;;2.17;0.80;;;;;;;35.46;24.25;102175.53;5077548;28;20104;-54
2022/08/09 10:31:19;;;;;;;0.95;0.80;;;;;;;35.96;22.78;102177.19;5079239;28;20029;-56
2022/08/09 10:33:45;;;;;;;3.50;1.00;;;;;;;36.14;22.13;102175.25;5078477;28;20534;-54
2022/08/09 10:36:13;;;;;;;1.63;0.65;;;;;;;37.30;23.00;102189.72;5077487;28;20456;-55
2022/08/09 10:38:42;;;;;;;1.52;1.02;;;;;;;37.12;20.67;102181.31;5061911;28;20468;-55
2022/08/09 10:41:08;;;;;;;3.33;0.90;;;;;;;37.35;20.28;102183.91;5076652;28;20040;-54
2022/08/09 10:43:36;;;;;;;3.28;1.13;;;;;;;37.31;20.83;102177.34;5075679;28;20036;-55
2022/08/09 10:46:27;;;;;;;1.52;1.08;;;;;;;36.94;18.89;102186.16;5075714;28;20376;-50
2022/08/09 10:49:12;;;;;;;2.95;1.30;;;;;;;36.53;19.32;102178.25;5075701;28;20449;-53
2022/08/09 10:51:54;;;;;;;3.67;1.17;;;;;;;36.49;19.12;102180.06;5055387;28;20397;-54
2022/08/09 10:54:23;;;;;;;4.30;1.40;;;;;;;36.55;20.59;102184.34;5054173;28;20044;-53
2022/08/09 10:57:06;;;;;;;1.73;1.00;;;;;;;37.61;19.31;102178.19;5055633;28;20152;-50
2022/08/09 10:59:32;;;;;;;2.35;1.00;;;;;;;36.97;19.72;102159.47;5055660;28;20021;-52
2022/08/09 11:01:58;;;;;;;1.95;0.88;;;;;;;37.23;21.61;102169.81;5038350;28;20483;-50
2022/08/09 11:04:26;;;;;;;5.43;1.20;;;;;;;38.23;18.44;102165.50;5055594;28;20473;-51
2022/08/09 11:07:25;;;;;;;1.88;0.90;;;;;;;38.46;17.93;102165.13;5037829;28;20208;-52
2022/08/09 11:09:51;;;;;;;3.35;1.33;;;;;;;37.77;19.70;102165.25;5054881;28;20478;-54
2022/08/09 11:12:23;;;;;;;0.73;0.65;;;;;;;37.90;19.47;102154.97;5054523;28;20033;-55
2022/08/09 11:14:54;;;;;;;3.33;1.30;;;;;;;38.61;17.80;102161.69;5055395;28;20028;-53
2022/08/09 11:17:42;;;;;;;2.88;1.05;;;;;;;39.32;18.32;102142.09;5038120;28;20032;-49
2022/08/09 11:20:09;;;;;;;5.15;0.82;;;;;;;40.35;18.63;102143.78;5056200;28;20033;-54
2022/08/09 11:22:56;;;;;;;3.20;0.90;;;;;;;40.86;16.29;102146.81;5055814;28;20031;-52
2022/08/09 11:25:35;;;;;;;5.53;1.20;;;;;;;40.71;14.65;102136.31;5056817;28;20112;-51
2022/08/09 11:28:33;;;;;;;4.18;1.25;;;;;;;39.94;15.31;102140.13;5058378;28;20024;-52
2022/08/09 11:31:01;;;;;;;1.08;0.90;;;;;;;40.09;17.07;102127.31;5057695;28;20351;-51
2022/08/09 11:33:40;;;;;;;3.08;0.77;;;;;;;40.39;16.07;102137.06;5040327;28;20029;-52